Time;durP1;ratioP1;P1;durP2;ratioP2;P2;SDS_P1;SDS_P2;PMS_P1;PMS_P2;Temp;Humidity;BMP_temperature;BMP_pressure;BME280_temperature;BME280_humidity;BME280_pressure;Samples;Min_cycle;Max_cycle;Signal;HPM_P1;HPM_P2
2023/09/24 00:01:49;;;;;;;14.60;8.98;;;;;;;7.67;100.00;102300.97;4877400;29;20028;-76
2023/09/24 00:04:17;;;;;;;12.20;8.50;;;;;;;7.09;100.00;102218.59;4876185;29;20452;-77
2023/09/24 00:06:43;;;;;;;11.80;8.45;;;;;;;7.32;100.00;102260.81;4877190;29;20033;-75
2023/09/24 00:09:08;;;;;;;14.60;8.45;;;;;;;7.37;100.00;102271.81;4876952;29;20442;-76
2023/09/24 00:11:34;;;;;;;12.05;8.18;;;;;;;7.32;100.00;102273.66;4877939;29;20064;-77
2023/09/24 00:13:59;;;;;;;10.45;7.95;;;;;;;7.22;100.00;102257.66;4878418;29;20060;-75
2023/09/24 00:16:24;;;;;;;10.35;7.90;;;;;;;7.50;100.00;102322.03;4877749;29;20036;-78
2023/09/24 00:18:50;;;;;;;9.32;7.85;;;;;;;7.50;100.00;102314.31;4877449;29;20041;-78
2023/09/24 00:21:16;;;;;;;10.48;7.38;;;;;;;7.35;100.00;102302.69;4877148;29;20387;-77
2023/09/24 00:23:41;;;;;;;10.63;7.63;;;;;;;7.45;100.00;102321.28;4876928;29;20475;-77
2023/09/24 00:26:06;;;;;;;9.88;7.55;;;;;;;7.46;100.00;102326.38;4877112;29;20497;-76
2023/09/24 00:28:31;;;;;;;9.40;7.45;;;;;;;7.43;100.00;102321.31;4876713;29;20438;-79
2023/09/24 00:31:08;;;;;;;11.20;8.02;;;;;;;7.44;100.00;102327.31;4876891;29;20430;-76
2023/09/24 00:33:33;;;;;;;9.75;7.65;;;;;;;7.17;100.00;102272.31;4876816;29;20044;-77
2023/09/24 00:36:01;;;;;;;11.02;7.40;;;;;;;7.42;100.00;102322.22;4877139;29;20120;-81
2023/09/24 00:38:26;;;;;;;11.07;7.63;;;;;;;7.38;100.00;102317.19;4876204;29;20022;-82
2023/09/24 00:40:52;;;;;;;10.32;7.63;;;;;;;7.41;100.00;102327.41;4876816;29;20059;-75
2023/09/24 00:43:26;;;;;;;11.27;7.70;;;;;;;7.28;100.00;102318.31;4875072;29;20056;-82
2023/09/24 00:45:52;;;;;;;13.02;8.18;;;;;;;7.36;100.00;102340.34;4876786;29;20506;-76
2023/09/24 00:48:17;;;;;;;11.52;7.93;;;;;;;7.32;100.00;102337.91;4876792;29;20036;-77
2023/09/24 00:50:42;;;;;;;12.13;9.25;;;;;;;7.24;100.00;102326.97;4875148;29;20041;-77
2023/09/24 00:53:08;;;;;;;14.18;9.93;;;;;;;7.12;100.00;102318.69;4876534;29;20029;-76
2023/09/24 00:55:34;;;;;;;13.57;8.95;;;;;;;7.25;100.00;102346.63;4876592;29;20091;-77
2023/09/24 00:58:03;;;;;;;13.85;10.23;;;;;;;7.21;100.00;102352.75;4876424;29;20028;-78
2023/09/24 01:00:30;;;;;;;15.25;11.13;;;;;;;7.09;100.00;102325.63;4876696;29;20397;-76
2023/09/24 01:02:57;;;;;;;15.88;11.32;;;;;;;7.25;100.00;102342.34;4876654;29;20029;-74
2023/09/24 01:05:23;;;;;;;15.55;10.73;;;;;;;7.18;100.00;102338.25;4876529;29;20079;-74
2023/09/24 01:07:48;;;;;;;14.82;11.25;;;;;;;7.14;100.00;102340.03;4876454;29;20037;-76
2023/09/24 01:10:15;;;;;;;15.10;11.15;;;;;;;7.06;100.00;102323.97;4876459;29;20025;-76
2023/09/24 01:12:52;;;;;;;14.13;10.68;;;;;;;7.07;100.00;102332.50;4876207;29;20116;-75
2023/09/24 01:15:18;;;;;;;14.63;10.85;;;;;;;6.97;100.00;102326.75;4876586;29;20061;-75
2023/09/24 01:17:43;;;;;;;14.93;10.38;;;;;;;7.02;100.00;102334.38;4876483;29;20064;-77
2023/09/24 01:20:13;;;;;;;14.70;10.63;;;;;;;6.89;100.00;102320.97;4876305;29;20029;-75
2023/09/24 01:22:38;;;;;;;14.77;10.07;;;;;;;6.98;100.00;102338.75;4890481;29;20096;-78
2023/09/24 01:25:05;;;;;;;14.52;10.77;;;;;;;6.78;100.00;102313.50;4876072;29;20025;-76
2023/09/24 01:27:35;;;;;;;17.58;11.65;;;;;;;6.83;100.00;102313.41;4876024;29;20033;-78
2023/09/24 01:30:00;;;;;;;16.20;11.50;;;;;;;6.76;100.00;102305.00;4876472;29;20463;-80
2023/09/24 01:32:25;;;;;;;18.00;12.25;;;;;;;6.87;100.00;102333.84;4890132;29;20041;-78
2023/09/24 01:34:51;;;;;;;20.95;12.85;;;;;;;6.83;100.00;102327.09;4876112;29;20037;-78
2023/09/24 01:37:18;;;;;;;21.95;13.95;;;;;;;6.67;100.00;102305.22;4876261;29;20029;-76
2023/09/24 01:39:45;;;;;;;23.25;14.55;;;;;;;6.79;100.00;102327.22;4889778;28;20068;-76
2023/09/24 01:42:13;;;;;;;26.98;15.65;;;;;;;6.82;100.00;102338.25;4875815;29;20063;-77
2023/09/24 01:44:40;;;;;;;28.95;18.02;;;;;;;6.82;100.00;102335.69;4889757;29;20040;-76
2023/09/24 01:47:05;;;;;;;25.05;16.13;;;;;;;6.84;100.00;102336.47;4878825;28;20044;-75
2023/09/24 01:49:31;;;;;;;29.40;17.73;;;;;;;6.86;100.00;102331.31;4896617;28;20036;-75
2023/09/24 01:51:57;;;;;;;25.10;16.05;;;;;;;6.75;100.00;102308.44;4898092;29;20489;-78
2023/09/24 01:54:25;;;;;;;26.02;16.70;;;;;;;6.92;100.00;102328.59;4897489;29;20028;-76
2023/09/24 01:56:50;;;;;;;18.33;12.80;;;;;;;6.84;100.00;102313.38;4897530;29;20119;-75
2023/09/24 01:59:16;;;;;;;17.23;11.55;;;;;;;6.97;100.00;102337.03;4897704;29;20140;-76
2023/09/24 02:01:44;;;;;;;15.90;11.43;;;;;;;6.99;100.00;102339.59;4897721;29;20029;-80
2023/09/24 02:04:10;;;;;;;15.60;11.50;;;;;;;6.87;100.00;102307.31;4896009;29;20033;-79
2023/09/24 02:06:35;;;;;;;15.77;11.02;;;;;;;6.89;100.00;102311.56;4897573;29;20103;-76
2023/09/24 02:09:01;;;;;;;15.23;10.82;;;;;;;6.85;100.00;102312.50;4897598;28;20035;-76
2023/09/24 02:11:27;;;;;;;14.85;10.20;;;;;;;6.96;100.00;102329.38;4897384;28;20024;-75
2023/09/24 02:13:55;;;;;;;14.48;10.57;;;;;;;6.95;100.00;102325.94;4897108;28;20482;-76
2023/09/24 02:16:20;;;;;;;14.18;10.25;;;;;;;6.91;100.00;102332.06;4897453;29;20390;-76
2023/09/24 02:18:46;;;;;;;16.35;10.90;;;;;;;6.96;100.00;102335.34;4897579;29;20020;-81
2023/09/24 02:21:15;;;;;;;13.05;10.57;;;;;;;6.85;100.00;102329.63;4897425;29;20037;-82
2023/09/24 02:23:42;;;;;;;14.10;10.70;;;;;;;6.91;100.00;102347.47;4897386;28;20060;-78
2023/09/24 02:26:08;;;;;;;18.30;11.15;;;;;;;6.85;100.00;102338.16;4897380;29;20056;-76
2023/09/24 02:28:38;;;;;;;14.45;11.05;;;;;;;6.88;100.00;102347.50;4897234;29;20021;-77
2023/09/24 02:31:04;;;;;;;16.17;10.98;;;;;;;6.89;100.00;102357.78;4897351;29;20462;-80
2023/09/24 02:33:29;;;;;;;15.15;11.15;;;;;;;6.83;100.00;102352.78;4897462;29;20055;-77
2023/09/24 02:35:54;;;;;;;15.25;11.07;;;;;;;6.84;100.00;102353.63;4897366;28;20060;-77
2023/09/24 02:38:22;;;;;;;14.73;10.90;;;;;;;6.88;100.00;102358.66;4897232;29;20052;-76
2023/09/24 02:40:48;;;;;;;20.80;10.93;;;;;;;6.88;100.00;102356.09;4895699;29;20470;-78
2023/09/24 02:43:15;;;;;;;15.93;10.80;;;;;;;6.87;100.00;102362.09;4896798;29;20092;-77
2023/09/24 02:45:40;;;;;;;13.95;11.02;;;;;;;6.86;100.00;102364.69;4897214;29;20040;-77
2023/09/24 02:48:06;;;;;;;13.10;10.75;;;;;;;6.74;100.00;102341.88;4897179;29;20037;-77
2023/09/24 02:50:31;;;;;;;14.23;10.68;;;;;;;6.72;100.00;102336.78;4897135;29;20029;-77
2023/09/24 02:52:58;;;;;;;12.68;10.23;;;;;;;6.82;100.00;102355.38;4879791;29;20379;-77
2023/09/24 02:55:26;;;;;;;13.93;10.50;;;;;;;6.79;100.00;102352.91;4896784;28;20036;-78
2023/09/24 02:57:52;;;;;;;15.18;11.18;;;;;;;6.78;100.00;102354.59;4896732;29;20466;-76
2023/09/24 03:00:26;;;;;;;15.57;10.75;;;;;;;6.71;100.00;102352.22;4941696;23;20087;-76
2023/09/24 03:02:53;;;;;;;14.65;10.98;;;;;;;6.77;100.00;102358.03;4953889;29;20046;-76
2023/09/24 03:05:24;;;;;;;15.60;10.70;;;;;;;6.64;100.00;102337.81;4936600;28;20472;-75
2023/09/24 03:07:50;;;;;;;16.10;12.05;;;;;;;6.77;100.00;102368.31;4953741;29;20024;-78
2023/09/24 03:10:16;;;;;;;18.20;12.00;;;;;;;6.77;100.00;102368.31;4936531;28;20027;-76
2023/09/24 03:12:43;;;;;;;15.23;11.43;;;;;;;6.78;100.00;102369.16;4954237;29;20099;-79
2023/09/24 03:15:10;;;;;;;15.52;11.13;;;;;;;6.72;100.00;102356.47;4954124;28;20024;-76
2023/09/24 03:17:36;;;;;;;16.77;11.73;;;;;;;6.65;100.00;102352.34;4954101;29;20036;-81
2023/09/24 03:20:05;;;;;;;14.85;12.10;;;;;;;6.73;100.00;102371.00;4953716;29;20028;-76
2023/09/24 03:22:30;;;;;;;17.15;10.93;;;;;;;6.67;100.00;102371.94;4953877;28;20051;-79
2023/09/24 03:24:57;;;;;;;15.13;10.98;;;;;;;6.64;100.00;102364.31;4953388;28;20102;-75
2023/09/24 03:27:22;;;;;;;14.35;10.00;;;;;;;6.65;100.00;102368.59;4953348;29;20027;-79
2023/09/24 03:29:48;;;;;;;15.40;11.25;;;;;;;6.64;100.00;102372.03;4953559;29;20103;-77
2023/09/24 03:32:14;;;;;;;18.35;11.75;;;;;;;6.62;100.00;102378.94;4953493;29;20460;-77
2023/09/24 03:34:40;;;;;;;14.05;10.52;;;;;;;6.58;100.00;102382.41;4920592;28;20031;-76
2023/09/24 03:37:09;;;;;;;15.80;10.55;;;;;;;6.42;100.00;102355.41;4953356;29;20023;-75
2023/09/24 03:39:35;;;;;;;13.20;10.75;;;;;;;6.53;100.00;102392.78;4953218;28;20496;-78
2023/09/24 03:42:00;;;;;;;14.48;11.05;;;;;;;6.54;100.00;102388.50;4953320;29;20027;-78
2023/09/24 03:44:26;;;;;;;14.32;10.98;;;;;;;6.53;100.00;102386.81;4953307;29;20035;-77
2023/09/24 03:46:51;;;;;;;14.48;10.35;;;;;;;6.45;100.00;102379.28;4953015;29;20032;-77
2023/09/24 03:49:16;;;;;;;13.20;10.68;;;;;;;6.49;100.00;102393.75;4953412;29;20038;-78
2023/09/24 03:51:41;;;;;;;14.57;10.48;;;;;;;6.48;100.00;102397.16;4953145;29;20039;-76
2023/09/24 03:54:07;;;;;;;13.68;9.88;;;;;;;6.45;100.00;102389.53;4952994;29;20031;-75
2023/09/24 03:56:32;;;;;;;13.75;10.60;;;;;;;6.46;100.00;102395.50;4952905;29;20020;-77
2023/09/24 03:58:57;;;;;;;13.75;10.35;;;;;;;6.43;100.00;102391.31;4952828;29;20081;-74
2023/09/24 04:01:23;;;;;;;14.05;10.85;;;;;;;6.42;100.00;102401.59;4952876;29;20475;-79
2023/09/24 04:03:49;;;;;;;16.65;11.18;;;;;;;6.31;100.00;102378.72;4952818;29;20035;-77
2023/09/24 04:06:15;;;;;;;15.15;11.18;;;;;;;6.29;100.00;102376.19;4935898;28;20031;-77
2023/09/24 04:08:40;;;;;;;14.98;10.38;;;;;;;6.42;100.00;102404.16;4952854;29;20050;-74
2023/09/24 04:11:12;;;;;;;14.20;10.57;;;;;;;6.38;100.00;102403.38;4952749;28;20047;-74
2023/09/24 04:13:38;;;;;;;15.27;10.60;;;;;;;6.29;100.00;102395.84;4951591;29;20024;-75
2023/09/24 04:16:13;;;;;;;14.27;11.50;;;;;;;6.26;100.00;102391.63;4952566;28;20027;-75
2023/09/24 04:18:41;;;;;;;14.23;11.13;;;;;;;6.32;100.00;102409.47;4952915;29;20027;-75
2023/09/24 04:21:17;;;;;;;15.77;11.05;;;;;;;6.30;100.00;102410.41;4952822;29;20027;-76
2023/09/24 04:23:43;;;;;;;15.68;10.55;;;;;;;6.28;100.00;102407.00;4952688;28;20427;-76
2023/09/24 04:26:16;;;;;;;14.77;10.98;;;;;;;6.27;100.00;102406.16;4952283;29;20027;-79
2023/09/24 04:28:42;;;;;;;16.33;11.30;;;;;;;6.27;100.00;102413.84;4952451;29;20038;-76
2023/09/24 04:31:07;;;;;;;17.42;10.65;;;;;;;6.27;100.00;102415.56;4934950;29;20043;-76
2023/09/24 04:33:34;;;;;;;13.50;10.10;;;;;;;5.95;100.00;102372.59;4952712;29;20050;-78
2023/09/24 04:35:59;;;;;;;13.77;10.27;;;;;;;6.18;100.00;102410.63;4935240;29;20039;-76
2023/09/24 04:38:24;;;;;;;13.85;10.23;;;;;;;6.11;100.00;102402.22;4952382;29;20057;-77
2023/09/24 04:40:50;;;;;;;14.88;10.80;;;;;;;6.10;100.00;102405.66;4952030;29;20042;-75
2023/09/24 04:43:17;;;;;;;13.80;10.88;;;;;;;6.14;100.00;102417.53;4952637;29;20031;-77
2023/09/24 04:45:43;;;;;;;14.15;10.45;;;;;;;6.04;100.00;102401.47;4935221;29;20063;-75
2023/09/24 04:48:08;;;;;;;14.95;10.35;;;;;;;6.11;100.00;102419.31;4952398;29;20060;-79
2023/09/24 04:50:34;;;;;;;16.40;10.80;;;;;;;6.11;100.00;102420.16;4952396;29;20027;-78
2023/09/24 04:52:59;;;;;;;16.48;10.48;;;;;;;6.00;100.00;102401.56;4952228;29;20030;-76
2023/09/24 04:55:37;;;;;;;19.13;10.73;;;;;;;6.08;100.00;102419.34;4934922;28;20035;-79
2023/09/24 04:58:13;;;;;;;13.77;10.23;;;;;;;6.08;100.00;102421.91;4952305;28;20027;-77
2023/09/24 05:40:19;;;;;;;12.90;8.93;;;;;;;6.04;100.00;102462.19;4899013;29;20055;-78
2023/09/24 05:55:18;;;;;;;13.88;10.38;;;;;;;6.21;100.00;102478.13;4958085;28;20078;-77
2023/09/24 06:10:55;;;;;;;14.98;11.32;;;;;;;6.65;100.00;102480.69;2603675;22;21023;-77
2023/09/24 06:37:57;;;;;;;17.85;12.85;;;;;;;8.43;100.00;102504.75;5395053;23;20055;-75
2023/09/24 06:40:22;;;;;;;15.77;12.98;;;;;;;8.87;100.00;102461.47;4936668;29;20043;-76
2023/09/24 06:43:09;;;;;;;15.00;10.45;;;;;;;9.44;100.00;102506.97;4953891;28;20023;-77
2023/09/24 06:48:51;;;;;;;;;;;;;;;9.91;100.00;102508.00;5071018;23;20105;-77
2023/09/24 06:52:02;;;;;;;11.52;8.02;;;;;;;9.60;100.00;102509.88;4973151;28;20379;-78
2023/09/24 06:54:02;;;;;;;10.02;7.60;;;;;;;9.45;100.00;102518.97;4962737;28;20035;-75
2023/09/24 06:56:28;;;;;;;10.20;7.70;;;;;;;8.34;100.00;102361.69;4973193;28;20019;-81
2023/09/24 07:02:15;;;;;;;11.23;8.00;;;;;;;9.07;100.00;102523.56;4972903;28;20045;-76
2023/09/24 07:04:41;;;;;;;12.50;8.63;;;;;;;8.99;100.00;102522.94;4973031;28;20570;-77
2023/09/24 07:07:51;;;;;;;14.32;9.38;;;;;;;9.00;100.00;102519.47;4973078;28;20110;-76
2023/09/24 07:10:26;;;;;;;16.00;11.80;;;;;;;8.76;100.00;102482.38;5031924;28;20036;-73
2023/09/24 07:13:16;;;;;;;14.48;10.90;;;;;;;9.08;100.00;102522.66;5075311;28;20052;-78
2023/09/24 07:15:41;;;;;;;15.18;11.98;;;;;;;8.73;100.00;102450.69;5074537;28;20111;-77
2023/09/24 07:18:07;;;;;;;16.23;13.57;;;;;;;8.51;100.00;102406.72;5074501;28;20090;-77
2023/09/24 07:20:59;;;;;;;16.60;12.68;;;;;;;9.23;100.00;102523.91;5074500;28;20121;-78
2023/09/24 07:23:27;;;;;;;15.93;12.25;;;;;;;8.99;100.00;102467.97;5074540;28;20024;-77
2023/09/24 07:25:52;;;;;;;16.60;11.98;;;;;;;9.37;100.00;102520.94;5074466;28;20020;-75
2023/09/24 07:28:20;;;;;;;13.45;10.15;;;;;;;9.20;100.00;102482.78;5074359;28;20036;-73
2023/09/24 07:30:48;;;;;;;13.70;10.18;;;;;;;9.31;100.00;102501.34;5074121;28;20021;-76
2023/09/24 07:33:29;;;;;;;;;;;;;;;;;;;;;
2023/09/24 07:36:16;;;;;;;13.77;9.25;;;;;;;9.62;100.00;102537.31;5006480;28;20420;-77
2023/09/24 07:39:25;;;;;;;12.90;8.73;;;;;;;9.71;100.00;102539.59;5056522;28;20036;-80
2023/09/24 07:45:47;;;;;;;12.60;8.23;;;;;;;9.93;100.00;102538.91;5074087;28;20070;-77
2023/09/24 07:51:38;;;;;;;11.57;7.68;;;;;;;10.15;100.00;102542.47;4967200;28;20054;-74
2023/09/24 07:54:15;;;;;;;14.85;7.38;;;;;;;10.22;100.00;102550.88;4954605;28;20035;-73
2023/09/24 07:56:42;;;;;;;12.15;7.72;;;;;;;10.29;100.00;102547.19;4972168;28;20035;-73
2023/09/24 07:59:20;;;;;;;13.70;8.23;;;;;;;10.15;100.00;102508.91;4972487;28;20031;-75
2023/09/24 08:12:52;;;;;;;12.05;6.93;;;;;;;10.00;100.00;102412.19;4933531;28;20097;-79
2023/09/24 08:15:49;;;;;;;12.88;6.78;;;;;;;10.90;100.00;102545.84;4933529;29;20520;-76
2023/09/24 08:18:44;;;;;;;11.65;6.68;;;;;;;11.06;100.00;102550.47;4933555;29;20031;-76
2023/09/24 08:27:44;;;;;;;12.63;7.00;;;;;;;10.48;100.00;102415.69;4874817;28;20088;-77
2023/09/24 08:30:15;;;;;;;11.38;6.70;;;;;;;10.96;100.00;102464.66;4874834;29;20203;-77
2023/09/24 08:32:44;;;;;;;8.68;5.80;;;;;;;10.73;100.00;102410.44;4874285;29;20041;-77
2023/09/24 08:35:59;;;;;;;;;;;;;;;;;;;;;
2023/09/24 08:48:45;;;;;;;10.48;5.07;;;;;;;12.23;100.00;102576.88;4896196;29;20048;-77
2023/09/24 08:57:55;;;;;;;7.65;3.50;;;;;;;11.57;100.00;102394.09;4895741;29;20079;-75
2023/09/24 09:00:37;;;;;;;7.65;3.25;;;;;;;11.76;100.00;102406.19;4900723;29;20040;-75
2023/09/24 09:26:27;;;;;;;4.82;2.08;;;;;;;13.69;100.00;102553.84;4896175;29;20075;-80
2023/09/24 09:42:42;;;;;;;4.32;1.85;;;;;;;14.30;100.00;102532.59;4933314;29;20155;-79
2023/09/24 10:29:46;;;;;;;6.55;1.70;;;;;;;15.44;95.74;102478.72;4952838;28;20076;-79
2023/09/24 10:32:52;;;;;;;5.07;1.55;;;;;;;15.56;98.03;102491.97;4954027;29;20043;-81
2023/09/24 10:35:36;;;;;;;4.65;1.50;;;;;;;14.73;96.53;102331.91;4954449;29;20035;-80
2023/09/24 10:38:17;;;;;;;3.22;1.15;;;;;;;14.86;95.17;102335.50;4954174;29;20031;-81
2023/09/24 10:41:23;;;;;;;3.95;1.52;;;;;;;15.72;95.41;102458.91;4954375;29;20027;-83
2023/09/24 10:44:27;;;;;;;5.45;1.35;;;;;;;15.88;89.95;102471.88;4954238;29;20202;-81
2023/09/24 10:46:53;;;;;;;4.22;1.58;;;;;;;15.70;91.86;102440.78;4937122;29;20408;-80
2023/09/24 10:49:24;;;;;;;4.75;1.60;;;;;;;15.81;90.51;102447.13;4954102;29;20027;-80
2023/09/24 10:51:59;;;;;;;3.67;1.63;;;;;;;15.84;91.45;102449.56;4954033;29;20039;-81
2023/09/24 10:54:25;;;;;;;6.30;1.40;;;;;;;16.08;91.48;102466.31;4953860;29;20081;-81
2023/09/24 10:56:50;;;;;;;5.53;1.38;;;;;;;16.14;91.11;102468.56;4953853;29;20035;-79
2023/09/24 10:59:16;;;;;;;4.30;1.50;;;;;;;16.21;86.45;102471.63;4954094;28;20035;-77
2023/09/24 11:01:42;;;;;;;5.35;1.50;;;;;;;16.18;85.68;102454.41;4953596;29;20030;-79
2023/09/24 11:04:24;;;;;;;6.78;1.50;;;;;;;16.16;85.31;102455.44;4953995;29;20027;-80
2023/09/24 11:06:49;;;;;;;4.20;1.27;;;;;;;16.19;83.08;102450.03;4954082;29;20380;-80
2023/09/24 11:09:16;;;;;;;4.20;1.58;;;;;;;16.39;80.68;102464.47;4953676;29;20039;-79
2023/09/24 11:11:42;;;;;;;5.57;1.38;;;;;;;16.39;83.14;102451.41;4953999;29;20030;-79
2023/09/24 11:14:15;;;;;;;5.55;1.40;;;;;;;16.58;83.69;102467.59;4953747;29;20035;-78
2023/09/24 11:16:40;;;;;;;4.55;1.55;;;;;;;16.49;80.39;102440.31;4953610;29;20435;-79
2023/09/24 11:19:06;;;;;;;5.13;1.50;;;;;;;16.65;82.18;102453.25;4936372;29;20027;-84
2023/09/24 11:21:31;;;;;;;5.30;1.30;;;;;;;16.70;82.07;102455.59;4952935;28;20392;-82
2023/09/24 11:34:45;;;;;;;4.03;1.20;;;;;;;16.98;76.32;102454.69;4909765;28;20060;-79
2023/09/24 11:38:02;;;;;;;4.13;1.80;;;;;;;17.01;77.49;102457.09;4915383;28;20055;-81
2023/09/24 11:40:28;;;;;;;3.90;1.40;;;;;;;17.04;76.29;102449.91;4915087;28;20040;-83
2023/09/24 11:42:55;;;;;;;3.58;1.33;;;;;;;17.06;75.97;102453.25;4914937;29;20428;-82
2023/09/24 11:45:50;;;;;;;4.88;1.52;;;;;;;17.15;77.95;102447.44;4914985;28;20032;-79
2023/09/24 11:48:27;;;;;;;3.30;1.27;;;;;;;17.26;77.94;102443.28;4915219;29;20079;-78
2023/09/24 11:51:01;;;;;;;3.83;1.15;;;;;;;17.20;76.98;102421.03;4915277;29;20029;-77
2023/09/24 11:53:27;;;;;;;3.97;1.50;;;;;;;17.40;77.91;102435.38;4914673;29;20059;-78
2023/09/24 11:55:58;;;;;;;6.18;1.38;;;;;;;17.49;72.02;102442.59;4915010;29;20115;-77
2023/09/24 11:58:28;;;;;;;5.30;1.27;;;;;;;17.41;74.70;102411.78;4914835;29;20478;-78
2023/09/24 12:00:57;;;;;;;5.10;1.58;;;;;;;17.78;75.24;102443.28;4914653;28;20039;-79
2023/09/24 12:03:24;;;;;;;4.15;1.30;;;;;;;17.81;71.78;102443.09;4914893;29;20024;-80
2023/09/24 12:05:50;;;;;;;4.25;1.38;;;;;;;17.75;70.75;102441.72;4897772;29;20123;-78
2023/09/24 12:08:16;;;;;;;3.97;1.17;;;;;;;17.68;70.22;102421.31;4914706;29;20115;-77
2023/09/24 12:10:46;;;;;;;2.00;1.02;;;;;;;17.84;70.75;102439.44;4914589;29;20116;-78
2023/09/24 12:13:12;;;;;;;4.15;1.42;;;;;;;17.85;70.38;102438.50;4897883;28;20489;-84
2023/09/24 12:15:37;;;;;;;3.45;1.13;;;;;;;17.76;71.84;102413.81;4914778;29;20031;-76
2023/09/24 12:18:05;;;;;;;3.42;1.27;;;;;;;17.83;72.06;102429.94;4914663;29;20463;-80
2023/09/24 12:20:31;;;;;;;6.93;1.60;;;;;;;17.82;71.32;102436.94;4915212;29;20032;-77
2023/09/24 12:22:59;;;;;;;4.05;1.38;;;;;;;17.74;72.85;102424.38;4914478;29;20116;-80
2023/09/24 12:25:25;;;;;;;2.05;1.20;;;;;;;17.72;75.43;102430.66;4914611;29;20035;-79
2023/09/24 12:34:48;;;;;;;3.88;1.42;;;;;;;16.91;72.25;102279.41;4933771;29;20055;-76
2023/09/24 12:42:18;;;;;;;3.50;1.40;;;;;;;16.89;69.56;102265.63;4951123;28;20058;-81
2023/09/24 12:52:51;;;;;;;2.17;1.27;;;;;;;17.75;71.98;102406.94;5034127;22;20455;-81
2023/09/24 12:55:28;;;;;;;3.40;1.13;;;;;;;16.84;70.68;102255.50;4934439;29;20473;-79
2023/09/24 13:00:33;;;;;;;3.72;1.50;;;;;;;17.13;68.30;102304.91;4818380;22;3551698;-81
2023/09/24 13:07:13;;;;;;;2.75;1.20;;;;;;;17.70;68.81;102388.97;4955071;23;20056;-83
2023/09/24 13:10:14;;;;;;;5.22;1.40;;;;;;;17.68;65.34;102387.34;4952484;29;20046;-78
2023/09/24 13:18:14;;;;;;;;;;;;;;;17.67;66.21;102390.91;4892734;29;20116;-77
2023/09/24 13:25:54;;;;;;;3.10;1.17;;;;;;;17.77;63.54;102378.91;4930711;28;20039;-79
2023/09/24 13:28:21;;;;;;;4.13;1.33;;;;;;;17.42;64.29;102314.22;4909357;28;20056;-80
2023/09/24 13:33:49;;;;;;;3.88;1.30;;;;;;;17.54;61.71;102341.28;4898252;29;20068;-78
2023/09/24 13:39:25;;;;;;;3.67;1.48;;;;;;;16.69;64.76;102213.94;4911794;29;20120;-83
2023/09/24 13:42:09;;;;;;;2.97;1.17;;;;;;;17.36;63.69;102306.81;4920692;23;20123;-76
2023/09/24 14:18:19;;;;;;;3.80;1.40;;;;;;;17.67;65.83;102312.53;4993652;22;20448;-79
2023/09/24 14:24:48;;;;;;;;;;;;;;;17.80;66.47;102333.44;4954168;28;20514;-77
2023/09/24 14:27:20;;;;;;;3.40;1.17;;;;;;;16.97;63.02;102177.22;4956220;29;20009;-80
2023/09/24 14:30:20;;;;;;;2.90;1.15;;;;;;;17.40;64.26;102248.22;4955666;29;20046;-77
2023/09/24 14:32:48;;;;;;;3.95;1.30;;;;;;;17.09;63.53;102197.25;4955070;29;20051;-80
2023/09/24 14:35:13;;;;;;;3.63;1.50;;;;;;;17.93;63.30;102327.25;4955401;29;20034;-79
2023/09/24 14:37:39;;;;;;;4.57;1.48;;;;;;;18.01;65.47;102329.34;4955370;29;20393;-76
2023/09/24 14:40:05;;;;;;;3.17;1.30;;;;;;;18.00;63.79;102319.84;4955093;29;20031;-79
2023/09/24 14:42:30;;;;;;;2.70;1.20;;;;;;;17.99;62.72;102321.63;4955158;29;20031;-77
2023/09/24 14:44:56;;;;;;;4.38;1.20;;;;;;;17.96;63.52;102321.81;4955145;29;20046;-77
2023/09/24 14:47:21;;;;;;;3.10;1.20;;;;;;;17.96;63.20;102320.97;4955161;29;20548;-78
2023/09/24 14:49:47;;;;;;;4.82;1.30;;;;;;;17.96;62.06;102324.44;4954859;29;20392;-81
2023/09/24 14:52:13;;;;;;;3.20;1.30;;;;;;;17.95;60.19;102319.31;4955017;29;20090;-78
2023/09/24 14:54:38;;;;;;;3.65;1.45;;;;;;;17.96;59.47;102320.97;4954885;29;20027;-78
2023/09/24 14:57:03;;;;;;;4.10;1.20;;;;;;;17.94;59.33;102315.03;4954006;28;20067;-78
2023/09/24 14:59:29;;;;;;;2.33;1.10;;;;;;;17.95;60.77;102317.53;4953909;29;20035;-77
2023/09/24 15:01:56;;;;;;;2.15;1.10;;;;;;;17.68;60.17;102272.38;4953857;29;20031;-77
2023/09/24 15:04:21;;;;;;;2.80;1.25;;;;;;;17.87;59.41;102309.38;4953800;28;20043;-80
2023/09/24 15:06:47;;;;;;;3.40;1.50;;;;;;;17.83;60.58;102307.94;4936159;28;20024;-81
2023/09/24 15:09:12;;;;;;;4.38;1.90;;;;;;;17.84;62.48;102293.09;4954164;29;20480;-78
2023/09/24 15:11:39;;;;;;;4.20;1.40;;;;;;;17.81;62.58;102286.31;4954768;28;20058;-74
2023/09/24 15:14:04;;;;;;;4.13;1.30;;;;;;;17.75;61.66;102278.91;4953415;29;20046;-80
2023/09/24 15:16:30;;;;;;;3.45;1.42;;;;;;;17.84;60.65;102290.47;4953698;28;20473;-79
2023/09/24 15:18:57;;;;;;;2.50;1.13;;;;;;;17.65;60.37;102252.56;4953388;29;20097;-73
2023/09/24 15:21:22;;;;;;;2.63;1.20;;;;;;;17.71;61.41;102267.84;4953017;28;20055;-75
2023/09/24 15:23:48;;;;;;;2.55;1.10;;;;;;;17.66;63.10;102271.66;4953514;28;20073;-76
2023/09/24 15:26:13;;;;;;;4.25;1.30;;;;;;;17.18;62.22;102201.00;4953748;28;20461;-75
2023/09/24 15:28:54;;;;;;;3.28;1.17;;;;;;;17.40;62.32;102247.34;4953350;29;20036;-76
2023/09/24 15:32:18;;;;;;;5.97;1.77;;;;;;;17.44;63.90;102254.88;4953675;29;20033;-76
2023/09/24 15:41:39;;;;;;;3.10;1.35;;;;;;;16.76;63.85;102142.16;4897054;29;20100;-76
2023/09/24 15:44:06;;;;;;;2.63;1.17;;;;;;;17.41;63.71;102246.44;4897031;29;20390;-77
2023/09/24 15:46:34;;;;;;;2.92;1.30;;;;;;;17.27;64.79;102234.31;4897061;29;20025;-76
2023/09/24 15:48:59;;;;;;;3.33;1.35;;;;;;;17.37;66.20;102258.03;4896943;29;20189;-75
2023/09/24 15:51:25;;;;;;;3.30;1.23;;;;;;;17.42;64.86;102263.78;4896978;29;20537;-78
2023/09/24 15:53:50;;;;;;;2.83;1.40;;;;;;;17.45;64.62;102269.59;4897872;29;20088;-76
2023/09/24 15:56:15;;;;;;;4.18;1.45;;;;;;;17.40;64.23;102269.09;4899628;29;20037;-76
2023/09/24 15:58:41;;;;;;;2.70;1.70;;;;;;;17.23;65.47;102253.75;4898558;29;20518;-76
2023/09/24 16:01:07;;;;;;;3.05;1.50;;;;;;;17.32;66.61;102271.41;4897019;29;20036;-74
2023/09/24 16:03:33;;;;;;;4.53;1.48;;;;;;;17.16;66.65;102253.34;4896686;29;20479;-77
2023/09/24 16:05:58;;;;;;;2.95;1.48;;;;;;;17.18;69.53;102277.53;4896787;29;20039;-78
2023/09/24 16:08:24;;;;;;;2.42;1.40;;;;;;;17.17;68.27;102280.28;4896824;29;20052;-80
2023/09/24 16:10:50;;;;;;;2.78;1.50;;;;;;;17.12;67.48;102272.75;4895736;29;20036;-79
2023/09/24 16:13:15;;;;;;;2.67;1.27;;;;;;;17.17;68.52;102278.50;4894472;29;20033;-77
2023/09/24 16:15:41;;;;;;;2.70;1.20;;;;;;;17.12;67.58;102284.97;4926670;29;20040;-79
2023/09/24 16:18:07;;;;;;;3.97;1.55;;;;;;;17.10;67.94;102284.22;4933159;29;20544;-77
2023/09/24 16:20:33;;;;;;;3.90;1.50;;;;;;;16.85;69.48;102236.31;4933449;29;20119;-78
2023/09/24 16:22:58;;;;;;;3.58;1.70;;;;;;;17.08;68.51;102281.72;4916652;29;20032;-82
2023/09/24 16:25:27;;;;;;;3.80;1.48;;;;;;;17.03;70.02;102278.59;4933520;29;20161;-77
2023/09/24 16:27:52;;;;;;;2.58;1.38;;;;;;;16.91;69.45;102263.75;4933613;29;20071;-77
2023/09/24 16:30:18;;;;;;;4.65;1.60;;;;;;;16.90;70.26;102273.34;4933505;29;20048;-77
2023/09/24 16:32:43;;;;;;;3.72;1.50;;;;;;;16.71;72.08;102259.00;4933420;29;20117;-77
2023/09/24 16:35:08;;;;;;;5.00;1.35;;;;;;;16.78;72.24;102282.00;4933268;28;20020;-77
2023/09/24 16:37:35;;;;;;;2.70;1.30;;;;;;;16.68;74.24;102286.16;4933327;29;20036;-76
2023/09/24 16:40:00;;;;;;;3.45;1.35;;;;;;;16.56;73.62;102263.44;4933266;29;20035;-75
2023/09/24 16:42:26;;;;;;;3.10;1.25;;;;;;;16.48;75.30;102265.72;4933149;29;20436;-76
2023/09/24 16:44:51;;;;;;;3.40;1.70;;;;;;;16.46;76.61;102270.19;4916138;29;20032;-74
2023/09/24 16:47:17;;;;;;;3.45;1.50;;;;;;;16.39;76.94;102274.13;4933300;29;20396;-74
2023/09/24 16:49:42;;;;;;;3.25;1.42;;;;;;;16.30;77.36;102276.38;4932674;28;20074;-74